Time;durP1;ratioP1;P1;durP2;ratioP2;P2;SDS_P1;SDS_P2;PMS_P1;PMS_P2;Temp;Humidity;BMP_temperature;BMP_pressure;BME280_temperature;BME280_humidity;BME280_pressure;Samples;Min_cycle;Max_cycle;Signal;HPM_P1;HPM_P2
2022/07/30 18:04:00;;;;;;;5.75;1.70;;;;;;;;;;7328864;19;20221;-72
2022/07/30 22:02:38;;;;;;;6.32;2.67;;;;;;;;;;7334604;19;20022;-74
2022/07/30 22:05:03;;;;;;;6.28;2.58;;;;;;;;;;7357981;19;20033;-71
2022/07/30 22:07:28;;;;;;;8.88;3.10;;;;;;;;;;7374502;19;20078;-73
2022/07/30 22:09:54;;;;;;;7.37;3.10;;;;;;;;;;7378135;19;20336;-71
2022/07/30 22:12:19;;;;;;;7.47;2.53;;;;;;;;;;7383278;19;20757;-71
2022/07/30 22:14:44;;;;;;;6.40;2.92;;;;;;;;;;7384520;19;20006;-72
2022/07/30 22:17:09;;;;;;;4.80;2.47;;;;;;;;;;7379769;19;20017;-70
2022/07/30 22:19:35;;;;;;;7.80;3.10;;;;;;;;;;7381171;19;20355;-72
2022/07/30 22:22:00;;;;;;;7.18;2.80;;;;;;;;;;7375698;19;20093;-72
2022/07/30 22:24:25;;;;;;;5.57;3.10;;;;;;;;;;7381645;19;20031;-71
2022/07/30 22:26:50;;;;;;;5.43;2.70;;;;;;;;;;7385401;19;20027;-71
2022/07/30 22:29:16;;;;;;;6.37;2.60;;;;;;;;;;7388565;19;20936;-70
2022/07/30 22:31:41;;;;;;;6.20;2.70;;;;;;;;;;7379996;19;20272;-71
2022/07/30 22:34:06;;;;;;;7.60;2.60;;;;;;;;;;7383494;19;20013;-71
2022/07/30 22:36:31;;;;;;;5.90;3.13;;;;;;;;;;7384667;19;20007;-73
2022/07/30 22:38:56;;;;;;;7.38;2.88;;;;;;;;;;7384956;19;20048;-71
2022/07/30 22:41:22;;;;;;;7.03;3.20;;;;;;;;;;7387864;19;20129;-71
2022/07/30 22:43:47;;;;;;;7.10;3.07;;;;;;;;;;7387396;19;20082;-70
2022/07/30 22:46:12;;;;;;;6.43;2.83;;;;;;;;;;7382807;19;20263;-71
2022/07/30 22:48:37;;;;;;;7.50;3.03;;;;;;;;;;7386406;19;20319;-71
2022/07/30 22:51:02;;;;;;;6.90;2.87;;;;;;;;;;7384658;19;20045;-71
2022/07/30 22:53:28;;;;;;;6.82;3.30;;;;;;;;;;7380830;19;20777;-72
2022/07/30 22:55:53;;;;;;;6.00;2.63;;;;;;;;;;7385883;19;19999;-70
2022/07/30 22:58:18;;;;;;;9.38;2.60;;;;;;;;;;7387435;19;20022;-71
2022/07/30 23:00:43;;;;;;;10.63;3.03;;;;;;;;;;7381893;19;20002;-71
2022/07/30 23:03:08;;;;;;;7.25;2.83;;;;;;;;;;7381793;19;20252;-71
2022/07/30 23:05:34;;;;;;;4.20;2.13;;;;;;;;;;7380147;19;19994;-70
2022/07/30 23:07:59;;;;;;;6.57;2.42;;;;;;;;;;7382688;19;20022;-73
2022/07/30 23:10:25;;;;;;;5.85;2.70;;;;;;;;;;7377996;19;20014;-71
2022/07/30 23:12:50;;;;;;;5.85;3.17;;;;;;;;;;7384653;19;20122;-70
2022/07/30 23:15:16;;;;;;;5.77;2.80;;;;;;;;;;7379220;19;20011;-71
2022/07/30 23:17:42;;;;;;;6.88;2.90;;;;;;;;;;7387012;19;20270;-72
2022/07/30 23:20:08;;;;;;;7.32;2.83;;;;;;;;;;7340730;19;20015;-72
2022/07/30 23:22:34;;;;;;;6.97;2.70;;;;;;;;;;7348068;19;20018;-71
2022/07/30 23:24:59;;;;;;;7.30;2.92;;;;;;;;;;7371585;19;20211;-71
2022/07/30 23:27:25;;;;;;;8.15;2.83;;;;;;;;;;7375708;19;20073;-72
2022/07/30 23:29:50;;;;;;;6.05;2.85;;;;;;;;;;7373122;19;20057;-71
2022/07/30 23:32:15;;;;;;;7.70;3.20;;;;;;;;;;7380864;19;20030;-71
2022/07/30 23:34:40;;;;;;;5.50;2.60;;;;;;;;;;7377497;19;20024;-72
2022/07/30 23:37:06;;;;;;;6.40;2.97;;;;;;;;;;7378858;19;20223;-74
2022/07/30 23:39:31;;;;;;;6.32;2.88;;;;;;;;;;7374978;19;20259;-71
2022/07/30 23:41:56;;;;;;;5.70;2.50;;;;;;;;;;7376761;19;20005;-72
2022/07/30 23:44:22;;;;;;;5.85;2.70;;;;;;;;;;7378732;19;20051;-71
2022/07/30 23:46:47;;;;;;;9.60;3.00;;;;;;;;;;7373091;19;20038;-70
2022/07/30 23:49:12;;;;;;;7.53;2.90;;;;;;;;;;7376143;19;20778;-71
2022/07/30 23:51:37;;;;;;;5.57;3.03;;;;;;;;;;7367108;19;20022;-74
2022/07/30 23:54:02;;;;;;;7.63;2.67;;;;;;;;;;7380362;19;20439;-72
2022/07/30 23:56:28;;;;;;;7.93;2.80;;;;;;;;;;7378724;19;20030;-72
2022/07/30 23:58:53;;;;;;;7.03;2.67;;;;;;;;;;7377866;19;20239;-70
